sensor_id;sensor_type;location;lat;lon;timestamp;pressure;altitude;pressure_sealevel;temperature;humidity
72395;BME280;60384;48.152;11.614;2022-07-09T00:01:58;96722.53;;;17.32;47.75
72395;BME280;60384;48.152;11.614;2022-07-09T00:04:59;96718.25;;;17.31;48.05
72395;BME280;60384;48.152;11.614;2022-07-09T00:07:59;96716.22;;;17.28;47.61
72395;BME280;60384;48.152;11.614;2022-07-09T00:11:00;96713.84;;;17.27;47.58
72395;BME280;60384;48.152;11.614;2022-07-09T00:14:00;96714.19;;;17.25;47.91
72395;BME280;60384;48.152;11.614;2022-07-09T00:17:01;96720.72;;;17.24;48.17
72395;BME280;60384;48.152;11.614;2022-07-09T00:20:02;96706.28;;;17.20;47.87
72395;BME280;60384;48.152;11.614;2022-07-09T00:23:05;96709.66;;;17.17;48.20
72395;BME280;60384;48.152;11.614;2022-07-09T00:26:05;96712.25;;;17.14;47.74
72395;BME280;60384;48.152;11.614;2022-07-09T00:29:06;96703.44;;;17.05;48.15
72395;BME280;60384;48.152;11.614;2022-07-09T00:32:06;96697.44;;;16.99;48.24
72395;BME280;60384;48.152;11.614;2022-07-09T00:35:07;96696.53;;;16.95;48.23
72395;BME280;60384;48.152;11.614;2022-07-09T00:38:08;96693.72;;;16.91;48.53
72395;BME280;60384;48.152;11.614;2022-07-09T00:41:08;96695.16;;;16.89;48.55
72395;BME280;60384;48.152;11.614;2022-07-09T00:44:09;96689.66;;;16.85;48.28
72395;BME280;60384;48.152;11.614;2022-07-09T00:47:09;96693.31;;;16.81;48.72
72395;BME280;60384;48.152;11.614;2022-07-09T00:50:10;96688.91;;;16.76;48.43
72395;BME280;60384;48.152;11.614;2022-07-09T00:53:13;96692.16;;;16.70;48.93
72395;BME280;60384;48.152;11.614;2022-07-09T00:56:14;96689.97;;;16.63;48.82
72395;BME280;60384;48.152;11.614;2022-07-09T00:59:16;96682.22;;;16.62;49.04
72395;BME280;60384;48.152;11.614;2022-07-09T01:02:18;96686.22;;;16.56;49.10
72395;BME280;60384;48.152;11.614;2022-07-09T01:05:19;96681.81;;;16.51;48.93
72395;BME280;60384;48.152;11.614;2022-07-09T01:08:20;96683.91;;;16.45;49.17
72395;BME280;60384;48.152;11.614;2022-07-09T01:11:20;96681.88;;;16.42;49.28
72395;BME280;60384;48.152;11.614;2022-07-09T01:14:21;96677.13;;;16.39;49.46
72395;BME280;60384;48.152;11.614;2022-07-09T01:17:21;96674.28;;;16.36;49.37
72395;BME280;60384;48.152;11.614;2022-07-09T01:20:22;96675.75;;;16.33;49.32
72395;BME280;60384;48.152;11.614;2022-07-09T01:23:23;96668.31;;;16.30;49.55
72395;BME280;60384;48.152;11.614;2022-07-09T01:26:25;96664.81;;;16.30;49.96
72395;BME280;60384;48.152;11.614;2022-07-09T01:29:25;96660.41;;;16.25;49.78
72395;BME280;60384;48.152;11.614;2022-07-09T01:32:26;96663.09;;;16.25;49.76
72395;BME280;60384;48.152;11.614;2022-07-09T01:35:27;96666.13;;;16.24;49.92
72395;BME280;60384;48.152;11.614;2022-07-09T01:38:27;96669.81;;;16.19;49.53
72395;BME280;60384;48.152;11.614;2022-07-09T01:41:27;96662.84;;;16.18;49.97
72395;BME280;60384;48.152;11.614;2022-07-09T01:44:28;96654.75;;;16.18;50.33
72395;BME280;60384;48.152;11.614;2022-07-09T01:47:28;96647.44;;;16.19;50.22
72395;BME280;60384;48.152;11.614;2022-07-09T01:50:29;96650.16;;;16.19;50.43
72395;BME280;60384;48.152;11.614;2022-07-09T01:53:29;96645.41;;;16.16;50.58
72395;BME280;60384;48.152;11.614;2022-07-09T01:56:30;96649.56;;;16.13;50.11
72395;BME280;60384;48.152;11.614;2022-07-09T01:59:30;96641.66;;;16.08;50.47
72395;BME280;60384;48.152;11.614;2022-07-09T02:02:31;96637.91;;;16.00;50.55
72395;BME280;60384;48.152;11.614;2022-07-09T02:05:31;96637.28;;;15.95;51.01
72395;BME280;60384;48.152;11.614;2022-07-09T02:08:31;96641.44;;;15.92;51.03
72395;BME280;60384;48.152;11.614;2022-07-09T02:11:32;96637.97;;;15.92;51.06
72395;BME280;60384;48.152;11.614;2022-07-09T02:14:32;96632.09;;;15.90;50.98
72395;BME280;60384;48.152;11.614;2022-07-09T02:17:33;96631.31;;;15.89;51.06
72395;BME280;60384;48.152;11.614;2022-07-09T02:20:33;96628.59;;;15.89;51.23
72395;BME280;60384;48.152;11.614;2022-07-09T02:23:34;96631.78;;;15.91;51.07
72395;BME280;60384;48.152;11.614;2022-07-09T02:26:34;96637.16;;;15.91;51.61
72395;BME280;60384;48.152;11.614;2022-07-09T02:29:34;96631.31;;;15.89;51.40
72395;BME280;60384;48.152;11.614;2022-07-09T02:32:35;96631.97;;;15.86;51.35
72395;BME280;60384;48.152;11.614;2022-07-09T02:35:36;96621.97;;;15.87;51.35
72395;BME280;60384;48.152;11.614;2022-07-09T02:38:37;96625.16;;;15.89;51.58
72395;BME280;60384;48.152;11.614;2022-07-09T02:41:37;96620.09;;;15.87;51.85
72395;BME280;60384;48.152;11.614;2022-07-09T02:44:37;96610.88;;;15.88;52.04
72395;BME280;60384;48.152;11.614;2022-07-09T02:47:38;96613.59;;;15.88;51.91
72395;BME280;60384;48.152;11.614;2022-07-09T02:50:38;96616.59;;;15.87;51.53
72395;BME280;60384;48.152;11.614;2022-07-09T02:53:38;96610.53;;;15.90;51.54
72395;BME280;60384;48.152;11.614;2022-07-09T02:56:39;96606.72;;;15.91;52.00
72395;BME280;60384;48.152;11.614;2022-07-09T02:59:39;96606.72;;;15.91;51.83
72395;BME280;60384;48.152;11.614;2022-07-09T03:02:39;96606.09;;;15.94;51.53
72395;BME280;60384;48.152;11.614;2022-07-09T03:05:40;96610.69;;;15.93;52.46
72395;BME280;60384;48.152;11.614;2022-07-09T03:08:40;96614.50;;;15.92;51.89
72395;BME280;60384;48.152;11.614;2022-07-09T03:11:40;96619.41;;;15.90;52.29
72395;BME280;60384;48.152;11.614;2022-07-09T03:14:41;96615.72;;;15.95;51.77
72395;BME280;60384;48.152;11.614;2022-07-09T03:17:45;96619.38;;;15.99;52.42
72395;BME280;60384;48.152;11.614;2022-07-09T03:20:47;96619.19;;;16.04;51.96
72395;BME280;60384;48.152;11.614;2022-07-09T03:23:47;96617.91;;;16.01;52.35
72395;BME280;60384;48.152;11.614;2022-07-09T03:26:48;96621.41;;;16.02;52.17
72395;BME280;60384;48.152;11.614;2022-07-09T03:29:48;96618.38;;;16.03;52.26
72395;BME280;60384;48.152;11.614;2022-07-09T03:32:49;96621.88;;;16.04;52.03
72395;BME280;60384;48.152;11.614;2022-07-09T03:35:49;96620.41;;;16.06;52.39
72395;BME280;60384;48.152;11.614;2022-07-09T03:38:50;96622.00;;;16.07;52.49
72395;BME280;60384;48.152;11.614;2022-07-09T03:41:50;96618.97;;;16.09;52.02
72395;BME280;60384;48.152;11.614;2022-07-09T03:44:51;96625.16;;;16.09;52.48
72395;BME280;60384;48.152;11.614;2022-07-09T03:47:51;96627.53;;;16.11;52.38
72395;BME280;60384;48.152;11.614;2022-07-09T03:50:51;96624.97;;;16.15;52.34
72395;BME280;60384;48.152;11.614;2022-07-09T03:53:52;96630.16;;;16.20;52.91
72395;BME280;60384;48.152;11.614;2022-07-09T03:56:52;96630.75;;;16.25;52.49
72395;BME280;60384;48.152;11.614;2022-07-09T03:59:52;96631.03;;;16.32;52.46
72395;BME280;60384;48.152;11.614;2022-07-09T04:02:53;96638.00;;;16.33;52.38
72395;BME280;60384;48.152;11.614;2022-07-09T04:05:53;96634.50;;;16.33;52.92
72395;BME280;60384;48.152;11.614;2022-07-09T04:08:53;96642.28;;;16.34;52.55
72395;BME280;60384;48.152;11.614;2022-07-09T04:11:54;96636.88;;;16.34;52.73
72395;BME280;60384;48.152;11.614;2022-07-09T04:14:54;96643.84;;;16.35;53.19
72395;BME280;60384;48.152;11.614;2022-07-09T04:17:54;96632.84;;;16.40;52.94
72395;BME280;60384;48.152;11.614;2022-07-09T04:20:55;96633.31;;;16.42;52.91
72395;BME280;60384;48.152;11.614;2022-07-09T04:23:57;96639.97;;;16.45;52.73
72395;BME280;60384;48.152;11.614;2022-07-09T04:26:57;96634.56;;;16.45;53.18
72395;BME280;60384;48.152;11.614;2022-07-09T04:29:57;96638.06;;;16.45;53.08
72395;BME280;60384;48.152;11.614;2022-07-09T04:32:58;96638.06;;;16.45;53.42
72395;BME280;60384;48.152;11.614;2022-07-09T04:36:00;96645.00;;;16.46;53.07
72395;BME280;60384;48.152;11.614;2022-07-09T04:39:01;96638.19;;;16.49;53.45
72395;BME280;60384;48.152;11.614;2022-07-09T04:42:02;96640.69;;;16.54;53.31
72395;BME280;60384;48.152;11.614;2022-07-09T04:45:03;96640.97;;;16.61;53.57
72395;BME280;60384;48.152;11.614;2022-07-09T04:48:04;96647.59;;;16.64;53.53
72395;BME280;60384;48.152;11.614;2022-07-09T04:51:04;96641.56;;;16.67;53.52
72395;BME280;60384;48.152;11.614;2022-07-09T04:54:05;96641.22;;;16.68;53.74
72395;BME280;60384;48.152;11.614;2022-07-09T04:57:05;96645.16;;;16.71;53.94
72395;BME280;60384;48.152;11.614;2022-07-09T05:00:06;96639.91;;;16.74;53.85
72395;BME280;60384;48.152;11.614;2022-07-09T05:03:07;96641.59;;;16.79;53.95
72395;BME280;60384;48.152;11.614;2022-07-09T05:06:07;96642.84;;;16.81;53.73
72395;BME280;60384;48.152;11.614;2022-07-09T05:09:08;96635.53;;;16.82;53.94
72395;BME280;60384;48.152;11.614;2022-07-09T05:12:08;96640.28;;;16.85;54.19
72395;BME280;60384;48.152;11.614;2022-07-09T05:15:10;96640.94;;;16.82;54.27
72395;BME280;60384;48.152;11.614;2022-07-09T05:18:10;96637.78;;;16.80;54.40
72395;BME280;60384;48.152;11.614;2022-07-09T05:21:11;96649.69;;;16.79;54.27
72395;BME280;60384;48.152;11.614;2022-07-09T05:24:11;96642.84;;;16.81;54.51
72395;BME280;60384;48.152;11.614;2022-07-09T05:27:11;96646.91;;;16.87;54.49
72395;BME280;60384;48.152;11.614;2022-07-09T05:30:13;96638.16;;;16.90;54.22
72395;BME280;60384;48.152;11.614;2022-07-09T05:33:17;96647.28;;;16.98;54.42
72395;BME280;60384;48.152;11.614;2022-07-09T05:36:19;96648.78;;;17.08;54.41
72395;BME280;60384;48.152;11.614;2022-07-09T05:39:19;96647.78;;;17.12;54.35
72395;BME280;60384;48.152;11.614;2022-07-09T05:42:20;96651.25;;;17.13;54.54
72395;BME280;60384;48.152;11.614;2022-07-09T05:45:20;96645.53;;;17.14;54.62
72395;BME280;60384;48.152;11.614;2022-07-09T05:48:20;96645.31;;;17.19;54.55
72395;BME280;60384;48.152;11.614;2022-07-09T05:51:21;96652.84;;;17.26;54.60
72395;BME280;60384;48.152;11.614;2022-07-09T05:54:22;96643.78;;;17.30;54.57
72395;BME280;60384;48.152;11.614;2022-07-09T05:57:23;96641.50;;;17.32;54.61
72395;BME280;60384;48.152;11.614;2022-07-09T06:00:23;96637.81;;;17.37;54.74
72395;BME280;60384;48.152;11.614;2022-07-09T06:03:23;96639.72;;;17.37;54.69
72395;BME280;60384;48.152;11.614;2022-07-09T06:06:24;96643.00;;;17.42;54.74
72395;BME280;60384;48.152;11.614;2022-07-09T06:09:24;96644.00;;;17.50;54.81
72395;BME280;60384;48.152;11.614;2022-07-09T06:12:25;96643.59;;;17.60;54.57
72395;BME280;60384;48.152;11.614;2022-07-09T06:15:28;96648.56;;;17.70;54.70
72395;BME280;60384;48.152;11.614;2022-07-09T06:18:28;96649.13;;;17.75;54.75
72395;BME280;60384;48.152;11.614;2022-07-09T06:21:29;96653.28;;;17.85;54.64
72395;BME280;60384;48.152;11.614;2022-07-09T06:24:29;96653.94;;;17.94;54.68
72395;BME280;60384;48.152;11.614;2022-07-09T06:27:30;96654.28;;;18.05;54.44
72395;BME280;60384;48.152;11.614;2022-07-09T06:30:30;96650.22;;;18.11;54.62
72395;BME280;60384;48.152;11.614;2022-07-09T06:33:31;96651.44;;;18.13;54.78
72395;BME280;60384;48.152;11.614;2022-07-09T06:36:31;96643.09;;;18.18;54.27
72395;BME280;60384;48.152;11.614;2022-07-09T06:39:32;96649.84;;;18.25;54.04
72395;BME280;60384;48.152;11.614;2022-07-09T06:42:45;96649.59;;;18.30;54.35
72395;BME280;60384;48.152;11.614;2022-07-09T06:45:45;96648.81;;;18.29;53.98
72395;BME280;60384;48.152;11.614;2022-07-09T06:48:46;96642.28;;;18.30;54.03
72395;BME280;60384;48.152;11.614;2022-07-09T06:51:46;96638.44;;;18.31;53.98
72395;BME280;60384;48.152;11.614;2022-07-09T06:54:46;96643.16;;;18.34;54.22
72395;BME280;60384;48.152;11.614;2022-07-09T06:57:47;96648.25;;;18.36;54.04
72395;BME280;60384;48.152;11.614;2022-07-09T07:00:47;96651.75;;;18.36;54.09
72395;BME280;60384;48.152;11.614;2022-07-09T07:03:47;96648.25;;;18.36;54.02
72395;BME280;60384;48.152;11.614;2022-07-09T07:06:48;96647.13;;;18.37;53.87
72395;BME280;60384;48.152;11.614;2022-07-09T07:09:48;96641.38;;;18.38;54.03
72395;BME280;60384;48.152;11.614;2022-07-09T07:12:49;96647.34;;;18.44;53.79
72395;BME280;60384;48.152;11.614;2022-07-09T07:15:49;96651.81;;;18.52;53.60
72395;BME280;60384;48.152;11.614;2022-07-09T07:18:50;96649.78;;;18.61;53.49
72395;BME280;60384;48.152;11.614;2022-07-09T07:21:51;96653.03;;;18.67;53.75
72395;BME280;60384;48.152;11.614;2022-07-09T07:24:51;96654.63;;;18.68;53.60
72395;BME280;60384;48.152;11.614;2022-07-09T07:27:51;96644.66;;;18.72;53.76
72395;BME280;60384;48.152;11.614;2022-07-09T07:30:52;96634.03;;;18.79;53.70
72395;BME280;60384;48.152;11.614;2022-07-09T07:33:53;96637.63;;;18.83;53.65
72395;BME280;60384;48.152;11.614;2022-07-09T07:36:53;96635.47;;;18.88;53.71
72395;BME280;60384;48.152;11.614;2022-07-09T07:39:55;96636.97;;;19.02;53.40
72395;BME280;60384;48.152;11.614;2022-07-09T07:42:55;96631.84;;;19.12;53.34
72395;BME280;60384;48.152;11.614;2022-07-09T07:45:56;96631.25;;;19.19;53.35
72395;BME280;60384;48.152;11.614;2022-07-09T07:48:56;96617.31;;;19.20;53.14
72395;BME280;60384;48.152;11.614;2022-07-09T07:51:56;96626.78;;;19.26;53.30
72395;BME280;60384;48.152;11.614;2022-07-09T07:54:57;96617.88;;;19.42;53.21
72395;BME280;60384;48.152;11.614;2022-07-09T07:57:57;96617.13;;;19.57;52.80
72395;BME280;60384;48.152;11.614;2022-07-09T08:00:58;96622.78;;;19.67;52.68
72395;BME280;60384;48.152;11.614;2022-07-09T08:03:58;96615.16;;;19.73;52.65
72395;BME280;60384;48.152;11.614;2022-07-09T08:06:59;96626.38;;;19.87;52.92
72395;BME280;60384;48.152;11.614;2022-07-09T08:09:59;96631.25;;;19.97;52.58
72395;BME280;60384;48.152;11.614;2022-07-09T08:12:59;96630.53;;;20.00;52.72
72395;BME280;60384;48.152;11.614;2022-07-09T08:16:00;96626.03;;;20.08;52.50
72395;BME280;60384;48.152;11.614;2022-07-09T08:19:02;96623.13;;;20.16;52.37
72395;BME280;60384;48.152;11.614;2022-07-09T08:22:03;96622.16;;;20.25;52.32
72395;BME280;60384;48.152;11.614;2022-07-09T08:25:04;96616.56;;;20.33;52.27
72395;BME280;60384;48.152;11.614;2022-07-09T08:28:04;96612.84;;;20.41;52.34
72395;BME280;60384;48.152;11.614;2022-07-09T08:31:05;96614.91;;;20.48;52.19
72395;BME280;60384;48.152;11.614;2022-07-09T08:34:05;96617.06;;;20.58;52.01
72395;BME280;60384;48.152;11.614;2022-07-09T08:37:06;96616.47;;;20.68;52.04
72395;BME280;60384;48.152;11.614;2022-07-09T08:40:07;96608.66;;;20.86;51.88
72395;BME280;60384;48.152;11.614;2022-07-09T08:43:09;96602.72;;;20.99;51.44
72395;BME280;60384;48.152;11.614;2022-07-09T08:46:10;96601.28;;;21.06;51.32
72395;BME280;60384;48.152;11.614;2022-07-09T08:49:11;96596.22;;;21.04;51.17
72395;BME280;60384;48.152;11.614;2022-07-09T08:52:15;96595.91;;;21.09;50.54
72395;BME280;60384;48.152;11.614;2022-07-09T08:55:16;96587.69;;;21.06;50.65
72395;BME280;60384;48.152;11.614;2022-07-09T08:58:16;96583.09;;;21.10;50.68
72395;BME280;60384;48.152;11.614;2022-07-09T09:01:16;96582.84;;;21.15;50.43
72395;BME280;60384;48.152;11.614;2022-07-09T09:04:20;96582.97;;;21.22;50.26
72395;BME280;60384;48.152;11.614;2022-07-09T09:07:20;96580.41;;;21.32;50.57
72395;BME280;60384;48.152;11.614;2022-07-09T09:10:25;96581.38;;;21.43;49.86
72395;BME280;60384;48.152;11.614;2022-07-09T09:13:26;96576.41;;;21.49;49.45
72395;BME280;60384;48.152;11.614;2022-07-09T09:16:27;96571.47;;;21.55;49.50
72395;BME280;60384;48.152;11.614;2022-07-09T09:19:29;96565.00;;;21.63;49.36
72395;BME280;60384;48.152;11.614;2022-07-09T09:22:29;96564.34;;;21.73;49.64
72395;BME280;60384;48.152;11.614;2022-07-09T09:25:30;96559.03;;;21.80;49.22
72395;BME280;60384;48.152;11.614;2022-07-09T09:28:30;96565.28;;;21.84;49.04
72395;BME280;60384;48.152;11.614;2022-07-09T09:31:33;96558.88;;;21.96;49.17
72395;BME280;60384;48.152;11.614;2022-07-09T09:34:34;96562.09;;;22.05;48.35
72395;BME280;60384;48.152;11.614;2022-07-09T09:37:35;96563.66;;;22.02;49.06
72395;BME280;60384;48.152;11.614;2022-07-09T09:40:36;96567.84;;;22.26;50.03
72395;BME280;60384;48.152;11.614;2022-07-09T09:43:37;96553.38;;;22.52;50.67
72395;BME280;60384;48.152;11.614;2022-07-09T09:46:39;96557.25;;;22.84;51.18
72395;BME280;60384;48.152;11.614;2022-07-09T09:49:41;96561.53;;;23.22;51.02
72395;BME280;60384;48.152;11.614;2022-07-09T09:52:42;96552.28;;;23.34;51.10
72395;BME280;60384;48.152;11.614;2022-07-09T09:55:44;96546.22;;;23.55;50.43
72395;BME280;60384;48.152;11.614;2022-07-09T09:58:46;96544.75;;;23.68;49.91
72395;BME280;60384;48.152;11.614;2022-07-09T10:01:47;96543.69;;;23.86;49.49
72395;BME280;60384;48.152;11.614;2022-07-09T10:04:47;96537.53;;;23.97;49.25
72395;BME280;60384;48.152;11.614;2022-07-09T10:07:47;96535.34;;;24.20;49.36
72395;BME280;60384;48.152;11.614;2022-07-09T10:10:51;96533.16;;;24.64;48.94
72395;BME280;60384;48.152;11.614;2022-07-09T10:13:56;96533.66;;;25.09;47.98
72395;BME280;60384;48.152;11.614;2022-07-09T10:17:09;96519.22;;;25.55;47.60
72395;BME280;60384;48.152;11.614;2022-07-09T10:20:10;96518.34;;;26.04;48.15
72395;BME280;60384;48.152;11.614;2022-07-09T10:23:24;96515.16;;;26.37;46.31
72395;BME280;60384;48.152;11.614;2022-07-09T10:26:37;96520.53;;;26.51;45.98
72395;BME280;60384;48.152;11.614;2022-07-09T10:29:55;96516.59;;;26.56;45.21
72395;BME280;60384;48.152;11.614;2022-07-09T10:36:14;96517.41;;;26.49;44.43
72395;BME280;60384;48.152;11.614;2022-07-09T10:39:15;96518.66;;;26.34;45.26
72395;BME280;60384;48.152;11.614;2022-07-09T10:42:20;96519.53;;;26.06;44.39
72395;BME280;60384;48.152;11.614;2022-07-09T10:45:26;96520.00;;;25.59;44.81
72395;BME280;60384;48.152;11.614;2022-07-09T10:48:31;96519.63;;;25.21;44.04
72395;BME280;60384;48.152;11.614;2022-07-09T10:51:32;96528.97;;;25.20;45.01
72395;BME280;60384;48.152;11.614;2022-07-09T10:54:33;96516.47;;;25.30;45.23
72395;BME280;60384;48.152;11.614;2022-07-09T10:57:35;96514.91;;;25.46;44.66
72395;BME280;60384;48.152;11.614;2022-07-09T11:00:36;96518.84;;;25.38;44.49
72395;BME280;60384;48.152;11.614;2022-07-09T11:03:36;96528.22;;;25.16;44.34
72395;BME280;60384;48.152;11.614;2022-07-09T11:06:47;96518.41;;;25.08;44.00
72395;BME280;60384;48.152;11.614;2022-07-09T11:09:48;96516.09;;;25.21;44.30
72395;BME280;60384;48.152;11.614;2022-07-09T11:12:49;96516.47;;;25.16;43.57
72395;BME280;60384;48.152;11.614;2022-07-09T11:15:49;96512.59;;;25.06;43.85
72395;BME280;60384;48.152;11.614;2022-07-09T11:18:50;96504.75;;;25.15;43.59
72395;BME280;60384;48.152;11.614;2022-07-09T11:22:00;96496.56;;;25.12;42.40
72395;BME280;60384;48.152;11.614;2022-07-09T11:25:01;96502.41;;;25.21;43.30
72395;BME280;60384;48.152;11.614;2022-07-09T11:28:02;96484.81;;;25.43;43.23
72395;BME280;60384;48.152;11.614;2022-07-09T11:31:04;96486.75;;;25.49;43.10
72395;BME280;60384;48.152;11.614;2022-07-09T11:34:05;96482.44;;;25.70;43.21
72395;BME280;60384;48.152;11.614;2022-07-09T11:37:11;96478.88;;;25.90;43.29
72395;BME280;60384;48.152;11.614;2022-07-09T11:40:16;96479.66;;;25.87;42.78
72395;BME280;60384;48.152;11.614;2022-07-09T11:43:17;96486.34;;;25.83;42.60
72395;BME280;60384;48.152;11.614;2022-07-09T11:46:18;96469.47;;;26.02;42.68
72395;BME280;60384;48.152;11.614;2022-07-09T11:49:19;96473.56;;;26.53;42.66
72395;BME280;60384;48.152;11.614;2022-07-09T11:52:24;96469.72;;;27.02;42.37
72395;BME280;60384;48.152;11.614;2022-07-09T11:55:29;96462.03;;;27.31;41.79
72395;BME280;60384;48.152;11.614;2022-07-09T11:58:31;96456.75;;;27.54;41.87
72395;BME280;60384;48.152;11.614;2022-07-09T12:01:31;96455.56;;;27.55;41.55
72395;BME280;60384;48.152;11.614;2022-07-09T12:04:32;96448.81;;;27.63;41.68
72395;BME280;60384;48.152;11.614;2022-07-09T12:07:33;96450.28;;;27.71;40.74
72395;BME280;60384;48.152;11.614;2022-07-09T12:10:37;96453.50;;;27.66;40.88
72395;BME280;60384;48.152;11.614;2022-07-09T12:13:37;96442.66;;;27.48;40.67
72395;BME280;60384;48.152;11.614;2022-07-09T12:16:38;96443.91;;;27.40;40.74
72395;BME280;60384;48.152;11.614;2022-07-09T12:19:38;96442.63;;;27.52;40.87
72395;BME280;60384;48.152;11.614;2022-07-09T12:22:38;96439.44;;;27.57;40.86
72395;BME280;60384;48.152;11.614;2022-07-09T12:25:40;96433.16;;;27.60;40.13
72395;BME280;60384;48.152;11.614;2022-07-09T12:28:40;96436.38;;;27.48;40.43
72395;BME280;60384;48.152;11.614;2022-07-09T12:31:41;96421.88;;;27.47;40.38
72395;BME280;60384;48.152;11.614;2022-07-09T12:34:41;96418.66;;;27.60;40.21
72395;BME280;60384;48.152;11.614;2022-07-09T12:37:42;96420.94;;;27.65;40.04
72395;BME280;60384;48.152;11.614;2022-07-09T12:40:43;96419.91;;;27.48;39.62
72395;BME280;60384;48.152;11.614;2022-07-09T12:43:43;96416.03;;;27.01;39.38
72395;BME280;60384;48.152;11.614;2022-07-09T12:46:44;96419.25;;;26.92;39.88
72395;BME280;60384;48.152;11.614;2022-07-09T12:49:44;96410.69;;;26.80;39.18
72395;BME280;60384;48.152;11.614;2022-07-09T12:52:44;96410.47;;;26.56;39.45
72395;BME280;60384;48.152;11.614;2022-07-09T12:55:45;96396.75;;;26.60;39.80
72395;BME280;60384;48.152;11.614;2022-07-09T12:58:46;96394.69;;;26.74;39.43
72395;BME280;60384;48.152;11.614;2022-07-09T13:01:48;96395.06;;;26.77;39.28
72395;BME280;60384;48.152;11.614;2022-07-09T13:04:48;96393.00;;;26.91;39.19
72395;BME280;60384;48.152;11.614;2022-07-09T13:07:49;96381.72;;;27.23;39.18
72395;BME280;60384;48.152;11.614;2022-07-09T13:10:49;96385.00;;;27.52;39.31
72395;BME280;60384;48.152;11.614;2022-07-09T13:13:49;96381.50;;;28.16;39.58
72395;BME280;60384;48.152;11.614;2022-07-09T13:16:50;96372.91;;;28.91;38.82
72395;BME280;60384;48.152;11.614;2022-07-09T13:19:50;96369.09;;;29.28;38.50
72395;BME280;60384;48.152;11.614;2022-07-09T13:22:52;96367.03;;;29.35;38.18
72395;BME280;60384;48.152;11.614;2022-07-09T13:25:53;96378.63;;;29.46;38.41
72395;BME280;60384;48.152;11.614;2022-07-09T13:28:53;96364.16;;;29.42;38.13
72395;BME280;60384;48.152;11.614;2022-07-09T13:31:54;96371.56;;;29.22;37.61
72395;BME280;60384;48.152;11.614;2022-07-09T13:34:54;96362.41;;;28.86;37.74
72395;BME280;60384;48.152;11.614;2022-07-09T13:37:54;96358.44;;;28.87;37.68
72395;BME280;60384;48.152;11.614;2022-07-09T13:40:55;96365.59;;;28.54;37.10
72395;BME280;60384;48.152;11.614;2022-07-09T13:43:55;96366.72;;;28.33;37.45
72395;BME280;60384;48.152;11.614;2022-07-09T13:46:56;96364.22;;;28.15;37.81
72395;BME280;60384;48.152;11.614;2022-07-09T13:49:56;96353.63;;;28.14;37.63
72395;BME280;60384;48.152;11.614;2022-07-09T13:52:56;96361.59;;;28.35;37.39
72395;BME280;60384;48.152;11.614;2022-07-09T13:55:57;96354.69;;;28.23;36.88
72395;BME280;60384;48.152;11.614;2022-07-09T13:58:58;96353.28;;;28.08;37.00
72395;BME280;60384;48.152;11.614;2022-07-09T14:01:58;96341.41;;;27.88;37.31
72395;BME280;60384;48.152;11.614;2022-07-09T14:05:03;96345.66;;;27.62;36.34
72395;BME280;60384;48.152;11.614;2022-07-09T14:08:04;96342.84;;;27.32;37.06
72395;BME280;60384;48.152;11.614;2022-07-09T14:11:05;96333.56;;;27.19;37.51
72395;BME280;60384;48.152;11.614;2022-07-09T14:14:06;96339.09;;;27.15;37.42
72395;BME280;60384;48.152;11.614;2022-07-09T14:17:06;96325.22;;;26.92;37.10
72395;BME280;60384;48.152;11.614;2022-07-09T14:20:07;96331.22;;;26.76;37.13
72395;BME280;60384;48.152;11.614;2022-07-09T14:23:08;96324.53;;;26.77;37.59
72395;BME280;60384;48.152;11.614;2022-07-09T14:26:08;96333.13;;;26.83;37.64
72395;BME280;60384;48.152;11.614;2022-07-09T14:29:10;96327.91;;;26.99;37.10
72395;BME280;60384;48.152;11.614;2022-07-09T14:32:10;96332.53;;;27.05;37.19
72395;BME280;60384;48.152;11.614;2022-07-09T14:35:10;96326.03;;;27.26;37.85
72395;BME280;60384;48.152;11.614;2022-07-09T14:38:11;96316.34;;;27.52;37.42
72395;BME280;60384;48.152;11.614;2022-07-09T14:41:11;96320.03;;;27.72;36.99
72395;BME280;60384;48.152;11.614;2022-07-09T14:44:12;96309.66;;;27.57;37.22
72395;BME280;60384;48.152;11.614;2022-07-09T14:47:12;96326.00;;;27.30;37.09
72395;BME280;60384;48.152;11.614;2022-07-09T14:50:12;96317.72;;;26.96;36.92
72395;BME280;60384;48.152;11.614;2022-07-09T14:53:13;96315.66;;;26.62;37.27
72395;BME280;60384;48.152;11.614;2022-07-09T14:56:13;96313.81;;;26.49;37.20
72395;BME280;60384;48.152;11.614;2022-07-09T14:59:14;96310.84;;;26.29;37.63
72395;BME280;60384;48.152;11.614;2022-07-09T15:02:20;96314.50;;;26.05;37.55
72395;BME280;60384;48.152;11.614;2022-07-09T15:05:20;96315.81;;;25.82;37.79
72395;BME280;60384;48.152;11.614;2022-07-09T15:08:21;96313.09;;;25.75;37.58
72395;BME280;60384;48.152;11.614;2022-07-09T15:11:21;96308.78;;;25.78;37.66
72395;BME280;60384;48.152;11.614;2022-07-09T15:14:22;96313.91;;;25.69;37.73
72395;BME280;60384;48.152;11.614;2022-07-09T15:17:23;96312.72;;;25.70;37.49
72395;BME280;60384;48.152;11.614;2022-07-09T15:20:23;96311.56;;;25.74;38.17
72395;BME280;60384;48.152;11.614;2022-07-09T15:23:23;96297.78;;;25.88;37.44
72395;BME280;60384;48.152;11.614;2022-07-09T15:26:24;96295.03;;;25.88;37.49
72395;BME280;60384;48.152;11.614;2022-07-09T15:29:24;96299.00;;;25.77;37.71
72395;BME280;60384;48.152;11.614;2022-07-09T15:32:24;96289.69;;;25.67;37.63
72395;BME280;60384;48.152;11.614;2022-07-09T15:35:25;96292.41;;;25.71;38.19
72395;BME280;60384;48.152;11.614;2022-07-09T15:38:25;96283.34;;;25.81;38.20
72395;BME280;60384;48.152;11.614;2022-07-09T15:41:26;96277.06;;;25.84;37.89
72395;BME280;60384;48.152;11.614;2022-07-09T15:44:27;96274.38;;;25.77;37.72
72395;BME280;60384;48.152;11.614;2022-07-09T15:47:27;96267.66;;;25.88;38.08
72395;BME280;60384;48.152;11.614;2022-07-09T15:50:28;96270.84;;;25.80;37.88